Edmonton International Airport
CYEG : now visible

Airfield :











YOU CAN JOIN US ON...

 
LOGIN :

Register | Disclaimer

   EN    FR    IT 

 









Legend :    VFR   Marginal VFR   IFR   Intensive IFR   Very Intensive IFR
Visi :
Ceiling :
>= 8 km
>= 3000ft
5 to 8 km
1000 to 3000 ft
1500m to 5 km
500 to 1000 ft
800 to 1500m
200 to 500 ft
< 800m
< 200 ft
Symbols :   Thunderstorms  Fog  Heavy snow  Heavy precipitations  Wind > 20 kt






- Airport Elevation : 2373 ft
- IATA code : YEG


CYEG - Edmonton International

CURRENT METAR :
  • 170300Z VRB02KT 20SM BKN076 BKN140 BKN250 M16/M18 A2990 RMK AC5AC1CI1 SLP180

EXPIRED METARs :
  • 170200Z 36005KT 20SM BKN076 BKN140 BKN250 M16/M19 A2988 RMK AC5AC1CI1 SLP173
  • 170100Z 33004KT 20SM SCT065 BKN140 BKN250 M14/M18 A2986 RMK SC4AC2CI1 SLP166

TAF TAF CYEG
Valid from the 17 at 03:00 until the 18 at 00:00 UTC


170245Z 1703/1724 36006KT P6SM FEW020 BKN070 BKN140
TEMPO 1703/1706 BKN020 OVC070
FM170600 09006KT P6SM -SN SCT012 BKN025 OVC070
TEMPO 1706/1709 2SM -SHSN BKN012 OVC025
FM170900 04008KT 11/2SM -SN OVC008
TEMPO 1709/1718 5SM -SN OVC012
PROB40 1710/1714 3/4SM -SN VV008
FM171800 36010KT 6SM -SN SCT020 OVC040
TEMPO 1718/1722 2SM -SN VV012
FM172200 36008KT P6SM SCT040 RMK NXT FCST BY 170600Z



MET'MAP, your aeronautical weather chart ! - Copyright ORBIFLY December 2007 - Disclaimer

ORBIFLY MET'MAP TEAM :

Programming & Development : Alexandra Zaïnal
Concept & original design : Baudouin d'Aumeries
Assistance for programming : Marc-Olivier Méhu
Technical & hardware support : Manuel Goepfert

Contact : metmap@orbifly.com




SOURCES & CREDITS :

   NOAA       Earth
Advisory